createdAt,value
2022-09-23T00:01:41.313Z,95580.91
2022-09-23T00:04:20.772Z,95578.08
2022-09-23T00:06:55.473Z,95567.80
2022-09-23T00:12:34.256Z,95576.12
2022-09-23T00:18:47.287Z,95572.86
2022-09-23T00:21:32.164Z,95572.34
2022-09-23T00:24:12.157Z,95568.50
2022-09-23T00:26:47.903Z,95565.07
2022-09-23T00:29:41.352Z,95567.34
2022-09-23T00:32:18.945Z,95566.50
2022-09-23T00:37:49.181Z,95571.51
2022-09-23T00:40:18.582Z,95575.08
2022-09-23T01:01:07.860Z,95574.11
2022-09-23T01:03:40.515Z,95570.55
2022-09-23T01:48:35.369Z,95578.55
2022-09-23T01:51:19.409Z,95580.77
2022-09-23T01:53:57.199Z,95582.09
2022-09-23T01:56:31.727Z,95591.80
2022-09-23T01:59:21.767Z,95591.80
2022-09-23T02:01:53.430Z,95586.96
2022-09-23T02:04:28.304Z,95582.44
2022-09-23T02:07:02.607Z,95594.03
2022-09-23T02:09:37.463Z,95583.39
2022-09-23T02:12:09.033Z,95585.18
2022-09-23T02:14:43.533Z,95587.83
2022-09-23T02:20:36.700Z,95583.39
2022-09-23T02:33:41.288Z,95582.20
2022-09-23T02:36:35.151Z,95584.95
2022-09-23T02:39:16.145Z,95584.95
2022-09-23T02:42:19.884Z,95584.07
2022-09-23T02:48:37.757Z,95580.25
2022-09-23T02:51:11.598Z,95588.61
2022-09-23T02:53:58.131Z,95585.05
2022-09-23T03:00:08.916Z,95589.45
2022-09-23T03:03:09.690Z,95593.78
2022-09-23T03:13:09.381Z,95598.06
2022-09-23T03:19:14.404Z,95599.67
2022-09-23T03:34:10.141Z,95597.28
2022-09-23T03:37:10.981Z,95594.38
2022-09-23T03:39:51.563Z,95593.91
2022-09-23T03:42:56.586Z,95589.87
2022-09-23T03:45:53.043Z,95589.06
2022-09-23T03:51:34.692Z,95515.99
2022-09-23T03:54:22.408Z,95594.87
2022-09-23T03:56:51.854Z,95597.73
2022-09-23T03:59:23.457Z,95601.95
2022-09-23T04:02:00.338Z,95597.73
2022-09-23T04:04:46.778Z,95613.16
2022-09-23T04:07:21.366Z,95606.62
2022-09-23T04:09:56.099Z,95607.20
2022-09-23T04:18:34.942Z,95611.04
2022-09-23T04:21:12.068Z,95616.52
2022-09-23T04:24:24.502Z,95617.52
2022-09-23T04:27:10.508Z,95612.67
2022-09-23T04:29:41.950Z,95623.33
2022-09-23T04:32:20.676Z,95622.30
2022-09-23T04:48:09.933Z,95640.11
2022-09-23T04:50:41.171Z,95641.05
2022-09-23T04:53:17.796Z,95644.15
2022-09-23T04:55:52.682Z,95641.59
2022-09-23T04:58:25.641Z,95647.03
2022-09-23T05:01:00.570Z,95650.78
2022-09-23T05:03:33.204Z,95651.89
2022-09-23T05:06:03.527Z,95653.88
2022-09-23T05:08:43.596Z,95648.14
2022-09-23T05:11:37.873Z,95652.75
2022-09-23T05:14:08.485Z,95652.96
2022-09-23T05:16:37.484Z,95657.98
2022-09-23T05:19:08.240Z,95653.97
2022-09-23T05:29:01.393Z,95656.76
2022-09-23T05:31:39.787Z,95661.38
2022-09-23T05:37:27.972Z,95664.75
2022-09-23T05:40:03.360Z,95664.81
2022-09-23T05:42:38.664Z,95669.52
2022-09-23T05:48:14.118Z,95659.00
2022-09-23T05:51:18.016Z,95666.75
2022-09-23T05:57:21.902Z,95664.72
2022-09-23T06:11:01.473Z,95664.05
2022-09-23T06:13:49.890Z,95663.28
2022-09-23T06:20:36.110Z,95654.67
2022-09-23T06:22:58.902Z,95654.77
2022-09-23T06:25:33.758Z,95656.36
2022-09-23T06:47:58.654Z,95656.20
2022-09-23T06:50:38.844Z,95671.73
2022-09-23T07:03:41.719Z,95671.35
2022-09-23T07:08:59.179Z,95683.69
2022-09-23T07:11:34.323Z,95684.63
2022-09-23T07:14:09.010Z,95691.20
2022-09-23T07:16:40.240Z,95697.00
2022-09-23T07:19:09.124Z,95692.17
2022-09-23T07:25:12.901Z,95687.54
2022-09-23T07:27:43.137Z,95687.13
2022-09-23T07:30:25.762Z,95685.45
2022-09-23T07:32:49.472Z,95699.04
2022-09-23T07:35:18.799Z,95696.73
2022-09-23T07:37:56.392Z,95705.09
2022-09-23T07:40:38.522Z,95704.66
2022-09-23T07:43:18.613Z,95701.16
2022-09-23T07:46:17.642Z,95705.22
2022-09-23T07:52:10.579Z,95706.31
2022-09-23T07:54:46.134Z,95701.00
2022-09-23T07:57:27.412Z,95698.50
2022-09-23T08:00:02.049Z,95704.43
2022-09-23T08:02:31.721Z,95697.55
2022-09-23T08:05:15.212Z,95701.51
2022-09-23T08:17:53.007Z,95704.53
2022-09-23T08:24:05.630Z,95673.91
2022-09-23T08:33:30.583Z,95698.15
2022-09-23T08:39:46.539Z,95689.52
2022-09-23T08:42:43.007Z,95695.27
2022-09-23T08:45:18.795Z,95693.30
2022-09-23T08:50:54.482Z,95693.55
2022-09-23T08:53:41.081Z,95691.27
2022-09-23T08:59:38.259Z,95688.47
2022-09-23T09:05:07.882Z,95689.81
2022-09-23T09:10:53.500Z,95676.23
2022-09-23T09:13:43.732Z,95683.06
2022-09-23T09:16:58.505Z,95688.69
2022-09-23T09:19:15.524Z,95677.20
2022-09-23T09:21:48.428Z,95680.18
2022-09-23T09:24:23.245Z,95674.05
2022-09-23T09:27:01.445Z,95691.47
2022-09-23T09:29:35.901Z,95676.11
2022-09-23T09:32:18.533Z,95681.19
2022-09-23T09:34:58.653Z,95677.97
2022-09-23T09:37:41.805Z,95683.91
2022-09-23T09:43:12.392Z,95671.16
2022-09-23T09:46:21.247Z,95680.53
2022-09-23T09:49:23.623Z,95672.60
2022-09-23T09:52:16.266Z,95682.67
2022-09-23T09:54:45.151Z,95682.05
2022-09-23T09:57:33.517Z,95679.95
2022-09-23T10:00:03.205Z,95681.61
2022-09-23T10:02:34.827Z,95671.65
2022-09-23T10:05:06.609Z,95673.03
2022-09-23T10:07:39.457Z,95670.16
2022-09-23T10:10:32.388Z,95669.89
2022-09-23T10:12:58.125Z,95668.78
2022-09-23T10:18:49.996Z,95663.95
2022-09-23T10:21:28.106Z,95668.02
2022-09-23T10:24:01.065Z,95651.80
2022-09-23T10:26:36.369Z,95653.05
2022-09-23T10:29:27.495Z,95650.34
2022-09-23T10:32:20.638Z,95646.42
2022-09-23T10:34:57.202Z,95645.48
2022-09-23T10:37:37.305Z,95633.45
2022-09-23T10:40:49.573Z,95644.38
2022-09-23T10:43:41.793Z,95643.49
2022-09-23T10:46:37.904Z,95638.54
2022-09-23T10:49:27.814Z,95633.98
2022-09-23T10:55:28.502Z,95634.23
2022-09-23T10:58:33.498Z,95620.61
2022-09-23T11:01:39.904Z,95623.86
2022-09-23T11:04:20.924Z,95622.11
2022-09-23T11:07:06.033Z,95621.95
2022-09-23T11:09:41.690Z,95623.67
2022-09-23T11:12:23.938Z,95606.59
2022-09-23T11:15:18.087Z,95602.70
2022-09-23T11:17:54.997Z,95594.45
2022-09-23T11:20:32.523Z,95593.55
2022-09-23T11:23:18.073Z,95598.51
2022-09-23T11:26:12.192Z,95588.34
2022-09-23T11:28:53.932Z,95595.15
2022-09-23T11:31:28.377Z,95597.02
2022-09-23T11:34:21.809Z,95590.59
2022-09-23T11:36:56.226Z,95582.69
2022-09-23T11:39:27.967Z,95582.38
2022-09-23T11:42:03.948Z,95584.05
2022-09-23T11:44:40.209Z,95584.45
2022-09-23T11:47:14.770Z,95582.17
2022-09-23T11:49:48.325Z,95579.09
2022-09-23T11:52:20.726Z,95569.58
2022-09-23T11:54:58.589Z,95568.24
2022-09-23T11:57:49.407Z,95561.98
2022-09-23T12:00:27.998Z,95557.22
2022-09-23T12:03:05.870Z,95547.80
2022-09-23T12:05:48.930Z,95560.59
2022-09-23T12:08:37.901Z,95558.27
2022-09-23T12:11:32.648Z,95572.20
2022-09-23T12:14:17.703Z,95571.28
2022-09-23T12:17:13.757Z,95576.41
2022-09-23T12:19:56.057Z,95587.91
2022-09-23T12:23:10.686Z,95578.96
2022-09-23T12:25:59.448Z,95588.30
2022-09-23T12:28:44.255Z,95572.84
2022-09-23T12:31:21.917Z,95572.63
2022-09-23T12:33:55.627Z,95570.14
2022-09-23T12:36:36.898Z,95561.00
2022-09-23T12:39:46.678Z,95561.48
2022-09-23T12:42:51.455Z,95565.16
2022-09-23T12:45:51.265Z,95559.98
2022-09-23T12:48:24.402Z,95559.02
2022-09-23T12:51:09.987Z,95559.81
2022-09-23T12:53:54.728Z,95565.13
2022-09-23T12:56:40.340Z,95564.45
2022-09-23T12:59:17.226Z,95572.14
2022-09-23T13:01:47.799Z,95572.23
2022-09-23T13:04:54.255Z,95567.43
2022-09-23T13:07:30.352Z,95563.64
2022-09-23T13:10:11.161Z,95562.28
2022-09-23T13:12:42.960Z,95562.83
2022-09-23T13:15:23.576Z,95555.57
2022-09-23T13:17:58.517Z,95560.39
2022-09-23T13:20:41.605Z,95554.27
2022-09-23T13:23:35.343Z,95553.12
2022-09-23T13:26:09.948Z,95552.36
2022-09-23T13:29:04.879Z,95558.64
2022-09-23T13:31:33.037Z,95559.39
2022-09-23T13:34:14.084Z,95562.28
2022-09-23T13:37:03.409Z,95552.52
2022-09-23T13:39:33.250Z,95552.30
2022-09-23T13:42:09.837Z,95558.47
2022-09-23T13:47:48.114Z,95557.73
2022-09-23T13:53:04.140Z,95547.67
2022-09-23T13:55:41.479Z,95557.27
2022-09-23T13:58:28.550Z,95557.83
2022-09-23T14:00:58.114Z,95551.13
2022-09-23T14:03:36.825Z,95544.97
2022-09-23T14:06:16.957Z,95551.41
2022-09-23T14:08:58.026Z,95547.38
2022-09-23T14:11:36.451Z,95544.69
2022-09-23T14:14:10.003Z,95548.03
2022-09-23T14:16:41.913Z,95548.29
2022-09-23T14:19:19.802Z,95542.45
2022-09-23T14:22:01.401Z,95543.73
2022-09-23T14:24:43.392Z,95535.31
2022-09-23T14:27:23.423Z,95533.11
2022-09-23T14:29:56.889Z,95532.77
2022-09-23T14:32:34.515Z,95535.27
2022-09-23T14:35:06.883Z,95538.92
2022-09-23T14:38:02.777Z,95529.34
2022-09-23T14:40:38.518Z,95532.41
2022-09-23T14:46:24.788Z,95532.81
2022-09-23T14:48:59.832Z,95530.67
2022-09-23T14:51:39.472Z,95531.05
2022-09-23T14:54:26.255Z,95529.10
2022-09-23T14:57:08.950Z,95534.20
2022-09-23T14:59:38.303Z,95534.24
2022-09-23T15:02:33.108Z,95529.10
2022-09-23T15:05:23.152Z,95528.11
2022-09-23T15:07:57.081Z,95529.98
2022-09-23T15:10:38.028Z,95523.70
2022-09-23T15:13:14.036Z,95527.79
2022-09-23T15:15:47.329Z,95539.03
2022-09-23T15:18:32.557Z,95539.73
2022-09-23T15:21:06.013Z,95539.50
2022-09-23T15:23:45.656Z,95534.80
2022-09-23T15:26:22.418Z,95542.89
2022-09-23T15:28:55.365Z,95540.96
2022-09-23T15:31:32.294Z,95542.30
2022-09-23T15:34:00.950Z,95541.89
2022-09-23T15:36:34.241Z,95541.16
2022-09-23T15:39:06.523Z,95544.09
2022-09-23T15:41:49.025Z,95534.67
2022-09-23T15:44:24.914Z,95536.39
2022-09-23T15:46:59.439Z,95542.30
2022-09-23T15:49:39.130Z,95546.30
2022-09-23T15:52:08.973Z,95550.30
2022-09-23T15:54:38.062Z,95554.85
2022-09-23T15:57:10.102Z,95556.52
2022-09-23T15:59:38.962Z,95562.05
2022-09-23T16:02:11.016Z,95560.87
2022-09-23T16:04:41.522Z,95567.34
2022-09-23T16:07:15.618Z,95570.75
2022-09-23T16:09:51.766Z,95567.27
2022-09-23T16:12:20.881Z,95567.04
2022-09-23T16:14:56.413Z,95568.53
2022-09-23T16:17:28.746Z,95569.98
2022-09-23T16:20:06.582Z,95573.72
2022-09-23T16:22:38.924Z,95573.28
2022-09-23T16:25:10.498Z,95572.47
2022-09-23T16:27:50.317Z,95575.52
2022-09-23T16:30:32.615Z,95579.24
2022-09-23T16:33:15.543Z,95583.20
2022-09-23T16:35:46.945Z,95579.74
2022-09-23T16:38:17.558Z,95576.22
2022-09-23T16:40:49.930Z,95580.02
2022-09-23T16:43:30.757Z,95584.94
2022-09-23T16:46:01.764Z,95585.93
2022-09-23T16:48:52.839Z,95595.04
2022-09-23T16:51:34.761Z,95594.38
2022-09-23T16:54:19.017Z,95596.50
2022-09-23T16:56:50.935Z,95600.30
2022-09-23T16:59:24.691Z,95600.45
2022-09-23T17:02:14.527Z,95607.98
2022-09-23T17:04:50.877Z,95619.16
2022-09-23T17:07:27.294Z,95619.73
2022-09-23T17:12:39.947Z,95622.17
2022-09-23T17:15:25.304Z,95628.84
2022-09-23T17:17:53.008Z,95625.31
2022-09-23T17:20:22.039Z,95635.26
2022-09-23T17:22:50.897Z,95636.09
2022-09-23T17:25:22.542Z,95634.72
2022-09-23T17:28:06.258Z,95636.30
2022-09-23T17:30:35.194Z,95637.89
2022-09-23T17:33:04.236Z,95639.79
2022-09-23T17:35:33.215Z,95644.91
2022-09-23T17:38:20.410Z,95644.70
2022-09-23T17:40:54.306Z,95645.40
2022-09-23T17:43:29.744Z,95641.87
2022-09-23T17:46:05.572Z,95643.66
2022-09-23T17:48:42.077Z,95641.16
2022-09-23T17:51:16.787Z,95643.34
2022-09-23T17:53:50.390Z,95642.30
2022-09-23T17:56:21.919Z,95640.20
2022-09-23T17:58:52.881Z,95644.13
2022-09-23T18:01:24.246Z,95647.55
2022-09-23T18:04:13.691Z,95646.42
2022-09-23T18:06:47.869Z,95652.50
2022-09-23T18:09:21.159Z,95655.53
2022-09-23T18:11:50.094Z,95657.79
2022-09-23T18:14:23.814Z,95665.02
2022-09-23T18:16:56.702Z,95660.89
2022-09-23T18:19:27.677Z,95663.69
2022-09-23T18:21:57.534Z,95661.30
2022-09-23T18:24:32.460Z,95663.92
2022-09-23T18:27:00.534Z,95663.27
2022-09-23T18:29:44.872Z,95669.03
2022-09-23T18:32:14.495Z,95663.14
2022-09-23T18:34:43.513Z,95660.57
2022-09-23T18:37:16.181Z,95665.25
2022-09-23T18:39:42.715Z,95667.09
2022-09-23T18:42:14.273Z,95661.83
2022-09-23T18:44:54.429Z,95671.08
2022-09-23T18:47:41.955Z,95677.67
2022-09-23T18:50:31.687Z,95667.37
2022-09-23T18:53:01.097Z,95672.97
2022-09-23T18:55:30.226Z,95678.98
2022-09-23T18:57:59.969Z,95676.11
2022-09-23T19:00:31.735Z,95683.54
2022-09-23T19:03:08.054Z,95677.44
2022-09-23T19:05:36.873Z,95678.74
2022-09-23T19:08:06.005Z,95683.23
2022-09-23T19:10:34.891Z,95604.38
2022-09-23T19:13:11.487Z,95685.66
2022-09-23T19:15:41.683Z,95685.59
2022-09-23T19:18:13.222Z,95686.16
2022-09-23T19:20:55.427Z,95684.16
2022-09-23T19:23:24.422Z,95686.31
2022-09-23T19:25:56.807Z,95687.83
2022-09-23T19:28:25.407Z,95689.22
2022-09-23T19:31:18.609Z,95684.78
2022-09-23T19:33:58.656Z,95685.58
2022-09-23T19:36:33.913Z,95691.36
2022-09-23T19:39:05.954Z,95692.10
2022-09-23T19:41:39.216Z,95688.77
2022-09-23T19:44:13.401Z,95693.27
2022-09-23T19:46:51.682Z,95690.91
2022-09-23T19:49:18.682Z,95695.63
2022-09-23T19:51:48.278Z,95695.88
2022-09-23T19:54:23.336Z,95702.99
2022-09-23T19:56:55.477Z,95700.40
2022-09-23T19:59:25.875Z,95703.20
2022-09-23T20:01:54.805Z,95698.09
2022-09-23T20:04:23.895Z,95692.70
2022-09-23T20:06:52.532Z,95701.11
2022-09-23T20:09:21.386Z,95694.67
2022-09-23T20:11:50.168Z,95695.16
2022-09-23T20:14:22.720Z,95696.34
2022-09-23T20:16:53.298Z,95690.81
2022-09-23T20:19:21.909Z,95694.35
2022-09-23T20:21:52.225Z,95689.97
2022-09-23T20:24:24.801Z,95695.56
2022-09-23T20:27:11.960Z,95702.44
2022-09-23T20:29:40.787Z,95703.37
2022-09-23T20:32:11.340Z,95704.53
2022-09-23T20:34:41.706Z,95711.89
2022-09-23T20:37:11.265Z,95712.02
2022-09-23T20:39:41.458Z,95710.50
2022-09-23T20:42:11.836Z,95706.79
2022-09-23T20:44:43.323Z,95719.17
2022-09-23T20:47:14.451Z,95714.07
2022-09-23T20:49:45.616Z,95716.07
2022-09-23T20:52:21.720Z,95727.01
2022-09-23T20:54:51.717Z,95720.07
2022-09-23T20:57:22.832Z,95704.92
2022-09-23T20:59:51.933Z,95727.03
2022-09-23T21:02:20.653Z,95727.59
2022-09-23T21:04:49.280Z,95734.48
2022-09-23T21:07:21.501Z,95733.79
2022-09-23T21:09:51.752Z,95735.81
2022-09-23T21:12:22.708Z,95735.92
2022-09-23T21:14:51.727Z,95737.28
2022-09-23T21:17:23.588Z,95738.06
2022-09-23T21:19:52.099Z,95736.95
2022-09-23T21:22:23.702Z,95734.52
2022-09-23T21:25:26.542Z,95732.77
2022-09-23T21:27:23.615Z,95735.64
2022-09-23T21:29:52.198Z,95729.34
2022-09-23T21:32:21.423Z,95730.45
2022-09-23T21:34:57.223Z,95727.92
2022-09-23T21:37:26.299Z,95728.91
2022-09-23T21:40:13.212Z,95730.67
2022-09-23T21:42:42.225Z,95736.87
2022-09-23T21:45:11.823Z,95735.20
2022-09-23T21:47:41.583Z,95734.64
2022-09-23T21:50:10.809Z,95740.72
2022-09-23T21:52:39.445Z,95747.81
2022-09-23T21:55:08.480Z,95749.78
2022-09-23T21:57:39.271Z,95749.23
2022-09-23T22:00:12.440Z,95752.66
2022-09-23T22:02:41.087Z,95749.33
2022-09-23T22:05:13.990Z,95750.89
2022-09-23T22:07:44.304Z,95753.44
2022-09-23T22:10:15.686Z,95755.98
2022-09-23T22:12:44.246Z,95739.82
2022-09-23T22:15:15.923Z,95741.84
2022-09-23T22:17:44.595Z,95746.78
2022-09-23T22:20:13.566Z,95746.91
2022-09-23T22:22:42.245Z,95745.56
2022-09-23T22:25:12.786Z,95741.37
2022-09-23T22:28:05.464Z,95742.03
2022-09-23T22:30:52.336Z,95737.81
2022-09-23T22:33:21.253Z,95744.89
2022-09-23T22:36:03.057Z,95747.63
2022-09-23T22:38:35.899Z,95749.31
2022-09-23T22:41:16.851Z,95748.86
2022-09-23T22:43:50.314Z,95752.74
2022-09-23T22:46:24.310Z,95751.05
2022-09-23T22:48:54.734Z,95744.62
2022-09-23T22:51:25.043Z,95741.52
2022-09-23T22:53:55.776Z,95743.95
2022-09-23T22:56:24.622Z,95741.32
2022-09-23T22:58:56.073Z,95733.37
2022-09-23T23:01:29.486Z,95738.25
2022-09-23T23:04:04.754Z,95746.36
2022-09-23T23:06:36.205Z,95739.76
2022-09-23T23:09:21.197Z,95740.41
2022-09-23T23:12:00.136Z,95748.27
2022-09-23T23:14:31.537Z,95743.38
2022-09-23T23:17:02.195Z,95747.03
2022-09-23T23:19:30.838Z,95749.98
2022-09-23T23:22:04.048Z,95675.19
2022-09-23T23:24:33.220Z,95745.45
2022-09-23T23:27:01.886Z,95748.98
2022-09-23T23:29:31.363Z,95750.02
2022-09-23T23:32:01.911Z,95749.60
2022-09-23T23:34:32.517Z,95749.19
2022-09-23T23:37:08.819Z,95747.62
2022-09-23T23:39:37.687Z,95750.27
2022-09-23T23:42:06.562Z,95747.12
2022-09-23T23:44:35.326Z,95738.13
2022-09-23T23:47:14.685Z,95745.38
2022-09-23T23:49:46.036Z,95740.22
2022-09-23T23:52:14.756Z,95732.91
2022-09-23T23:54:43.440Z,95733.34
2022-09-23T23:57:13.741Z,95726.09
2022-09-23T23:59:45.039Z,95725.83
